Spring Valley, Pennsylvania
Current Conditions -  °F | °C
As of 3:54 AM on Sunday 26 Oct 2014 (Local Time) from KRDG Reporting Station
Light Rain Light Rain  
Wind Chill: 60°   Ceiling: Unl
Heat Index: 60°   Visibility: 10mi
Dew Point: 37°   Wind: 15mph
Humidity: 42%   Direction: 300°WNW
Pressure: 29.62"   Gusts: NA
Location:  40.4008°N, 75.8851°W
Report Text: KRDG 260754Z AUTO 30013KT 10SM -RA CLR 16/03 A2962 RMK AO2 RAB17 SLP033 P0000 T01560028
Loading
Personal Weather Stations






























Interactive Weather Map
Tropical Storm Tracking
New forecast layout! Learn more

10-Day Weather Forecast

Advertisements
Track Severe Weather on mobile